sensor_id;sensor_type;location;lat;lon;timestamp;P1;durP1;ratioP1;P2;durP2;ratioP2
15312;SDS011;7757;52.626;4.746;2023-08-21T00:01:06;10.85;;;2.10;;
15312;SDS011;7757;52.626;4.746;2023-08-21T00:03:31;10.55;;;2.08;;
15312;SDS011;7757;52.626;4.746;2023-08-21T00:05:56;12.55;;;2.42;;
15312;SDS011;7757;52.626;4.746;2023-08-21T00:08:24;14.00;;;2.50;;
15312;SDS011;7757;52.626;4.746;2023-08-21T00:10:50;10.82;;;2.30;;
15312;SDS011;7757;52.626;4.746;2023-08-21T00:13:16;12.10;;;2.33;;
15312;SDS011;7757;52.626;4.746;2023-08-21T00:15:42;9.05;;;2.20;;
15312;SDS011;7757;52.626;4.746;2023-08-21T00:18:07;13.68;;;2.80;;
15312;SDS011;7757;52.626;4.746;2023-08-21T00:20:33;11.55;;;2.53;;
15312;SDS011;7757;52.626;4.746;2023-08-21T00:22:59;10.68;;;2.30;;
15312;SDS011;7757;52.626;4.746;2023-08-21T00:25:24;10.50;;;2.55;;
15312;SDS011;7757;52.626;4.746;2023-08-21T00:27:50;12.23;;;2.40;;
15312;SDS011;7757;52.626;4.746;2023-08-21T00:30:15;12.13;;;2.85;;
15312;SDS011;7757;52.626;4.746;2023-08-21T00:32:41;10.88;;;2.35;;
15312;SDS011;7757;52.626;4.746;2023-08-21T00:35:06;10.10;;;2.30;;
15312;SDS011;7757;52.626;4.746;2023-08-21T00:37:32;9.95;;;2.15;;
15312;SDS011;7757;52.626;4.746;2023-08-21T00:39:58;14.93;;;2.70;;
15312;SDS011;7757;52.626;4.746;2023-08-21T00:42:23;10.70;;;2.40;;
15312;SDS011;7757;52.626;4.746;2023-08-21T00:44:48;11.18;;;2.50;;
15312;SDS011;7757;52.626;4.746;2023-08-21T00:47:14;9.35;;;2.25;;
15312;SDS011;7757;52.626;4.746;2023-08-21T00:49:40;13.02;;;2.67;;
15312;SDS011;7757;52.626;4.746;2023-08-21T00:52:07;10.90;;;2.45;;
15312;SDS011;7757;52.626;4.746;2023-08-21T00:54:37;16.45;;;3.33;;
15312;SDS011;7757;52.626;4.746;2023-08-21T00:57:03;10.98;;;2.72;;
15312;SDS011;7757;52.626;4.746;2023-08-21T00:59:32;13.25;;;2.60;;
15312;SDS011;7757;52.626;4.746;2023-08-21T01:01:58;13.43;;;2.60;;
15312;SDS011;7757;52.626;4.746;2023-08-21T01:04:24;12.30;;;2.47;;
15312;SDS011;7757;52.626;4.746;2023-08-21T01:06:51;11.60;;;2.35;;
15312;SDS011;7757;52.626;4.746;2023-08-21T01:15:02;11.43;;;2.47;;
15312;SDS011;7757;52.626;4.746;2023-08-21T01:17:33;10.35;;;2.40;;
15312;SDS011;7757;52.626;4.746;2023-08-21T01:20:00;11.63;;;2.58;;
15312;SDS011;7757;52.626;4.746;2023-08-21T01:22:26;11.32;;;2.60;;
15312;SDS011;7757;52.626;4.746;2023-08-21T01:24:54;9.02;;;1.90;;
15312;SDS011;7757;52.626;4.746;2023-08-21T01:27:19;9.32;;;2.30;;
15312;SDS011;7757;52.626;4.746;2023-08-21T01:29:46;9.98;;;2.40;;
15312;SDS011;7757;52.626;4.746;2023-08-21T01:32:21;12.23;;;2.50;;
15312;SDS011;7757;52.626;4.746;2023-08-21T01:34:52;11.40;;;3.30;;
15312;SDS011;7757;52.626;4.746;2023-08-21T01:37:20;10.35;;;2.40;;
15312;SDS011;7757;52.626;4.746;2023-08-21T01:39:46;11.68;;;2.28;;
15312;SDS011;7757;52.626;4.746;2023-08-21T01:42:12;11.38;;;2.55;;
15312;SDS011;7757;52.626;4.746;2023-08-21T01:44:37;9.00;;;2.30;;
15312;SDS011;7757;52.626;4.746;2023-08-21T01:47:03;11.20;;;2.97;;
15312;SDS011;7757;52.626;4.746;2023-08-21T01:49:28;10.52;;;2.35;;
15312;SDS011;7757;52.626;4.746;2023-08-21T01:51:54;11.38;;;2.33;;
15312;SDS011;7757;52.626;4.746;2023-08-21T01:54:19;9.45;;;2.08;;
15312;SDS011;7757;52.626;4.746;2023-08-21T01:56:45;10.25;;;2.20;;
15312;SDS011;7757;52.626;4.746;2023-08-21T01:59:11;11.82;;;2.42;;
15312;SDS011;7757;52.626;4.746;2023-08-21T02:01:36;10.10;;;2.15;;
15312;SDS011;7757;52.626;4.746;2023-08-21T02:04:04;10.63;;;2.28;;
15312;SDS011;7757;52.626;4.746;2023-08-21T02:06:29;10.57;;;2.33;;
15312;SDS011;7757;52.626;4.746;2023-08-21T02:08:55;10.05;;;2.30;;
15312;SDS011;7757;52.626;4.746;2023-08-21T02:11:21;10.85;;;2.45;;
15312;SDS011;7757;52.626;4.746;2023-08-21T02:13:46;11.55;;;2.60;;
15312;SDS011;7757;52.626;4.746;2023-08-21T02:16:12;9.57;;;2.20;;
15312;SDS011;7757;52.626;4.746;2023-08-21T02:18:37;10.30;;;2.20;;
15312;SDS011;7757;52.626;4.746;2023-08-21T02:21:02;9.77;;;2.35;;
15312;SDS011;7757;52.626;4.746;2023-08-21T02:23:29;8.95;;;2.05;;
15312;SDS011;7757;52.626;4.746;2023-08-21T02:25:54;9.48;;;2.38;;
15312;SDS011;7757;52.626;4.746;2023-08-21T02:28:21;8.60;;;2.13;;
15312;SDS011;7757;52.626;4.746;2023-08-21T02:30:47;8.77;;;2.17;;
15312;SDS011;7757;52.626;4.746;2023-08-21T02:33:13;10.13;;;2.17;;
15312;SDS011;7757;52.626;4.746;2023-08-21T02:35:39;10.07;;;2.15;;
15312;SDS011;7757;52.626;4.746;2023-08-21T02:38:04;9.75;;;2.25;;
15312;SDS011;7757;52.626;4.746;2023-08-21T02:40:30;11.68;;;2.75;;
15312;SDS011;7757;52.626;4.746;2023-08-21T02:42:56;8.77;;;2.13;;
15312;SDS011;7757;52.626;4.746;2023-08-21T02:45:22;9.52;;;2.22;;
15312;SDS011;7757;52.626;4.746;2023-08-21T02:47:47;9.90;;;2.10;;
15312;SDS011;7757;52.626;4.746;2023-08-21T02:50:12;10.70;;;2.38;;
15312;SDS011;7757;52.626;4.746;2023-08-21T02:52:38;10.35;;;2.72;;
15312;SDS011;7757;52.626;4.746;2023-08-21T02:55:05;8.52;;;2.08;;
15312;SDS011;7757;52.626;4.746;2023-08-21T02:57:31;10.32;;;2.10;;
15312;SDS011;7757;52.626;4.746;2023-08-21T02:59:56;9.30;;;2.13;;
15312;SDS011;7757;52.626;4.746;2023-08-21T03:02:23;8.45;;;2.05;;
15312;SDS011;7757;52.626;4.746;2023-08-21T03:04:49;10.77;;;2.17;;
15312;SDS011;7757;52.626;4.746;2023-08-21T03:07:14;12.50;;;2.42;;
15312;SDS011;7757;52.626;4.746;2023-08-21T03:09:40;9.77;;;2.05;;
15312;SDS011;7757;52.626;4.746;2023-08-21T03:12:07;8.45;;;1.90;;
15312;SDS011;7757;52.626;4.746;2023-08-21T03:14:33;10.50;;;2.03;;
15312;SDS011;7757;52.626;4.746;2023-08-21T03:16:59;7.60;;;1.85;;
15312;SDS011;7757;52.626;4.746;2023-08-21T03:19:24;7.30;;;2.13;;
15312;SDS011;7757;52.626;4.746;2023-08-21T03:21:49;9.27;;;2.10;;
15312;SDS011;7757;52.626;4.746;2023-08-21T03:24:15;10.85;;;2.40;;
15312;SDS011;7757;52.626;4.746;2023-08-21T03:26:40;8.43;;;1.88;;
15312;SDS011;7757;52.626;4.746;2023-08-21T03:29:06;10.52;;;1.92;;
15312;SDS011;7757;52.626;4.746;2023-08-21T03:31:32;9.63;;;2.22;;
15312;SDS011;7757;52.626;4.746;2023-08-21T03:33:58;8.18;;;1.95;;
15312;SDS011;7757;52.626;4.746;2023-08-21T03:36:24;9.20;;;2.15;;
15312;SDS011;7757;52.626;4.746;2023-08-21T03:38:58;7.55;;;1.70;;
15312;SDS011;7757;52.626;4.746;2023-08-21T03:41:25;9.23;;;1.88;;
15312;SDS011;7757;52.626;4.746;2023-08-21T03:43:50;10.38;;;2.55;;
15312;SDS011;7757;52.626;4.746;2023-08-21T03:46:17;10.32;;;2.13;;
15312;SDS011;7757;52.626;4.746;2023-08-21T03:48:42;10.75;;;2.58;;
15312;SDS011;7757;52.626;4.746;2023-08-21T03:51:07;10.02;;;2.13;;
15312;SDS011;7757;52.626;4.746;2023-08-21T03:53:33;8.18;;;2.00;;
15312;SDS011;7757;52.626;4.746;2023-08-21T03:55:58;7.35;;;1.92;;
15312;SDS011;7757;52.626;4.746;2023-08-21T03:58:25;9.30;;;2.20;;
15312;SDS011;7757;52.626;4.746;2023-08-21T04:00:53;9.02;;;2.05;;
15312;SDS011;7757;52.626;4.746;2023-08-21T04:03:18;8.85;;;1.83;;
15312;SDS011;7757;52.626;4.746;2023-08-21T04:05:44;9.65;;;2.08;;
15312;SDS011;7757;52.626;4.746;2023-08-21T04:08:09;9.45;;;1.85;;
15312;SDS011;7757;52.626;4.746;2023-08-21T04:10:38;7.78;;;1.90;;
15312;SDS011;7757;52.626;4.746;2023-08-21T04:13:04;9.13;;;1.90;;
15312;SDS011;7757;52.626;4.746;2023-08-21T04:15:30;7.18;;;2.00;;
15312;SDS011;7757;52.626;4.746;2023-08-21T04:17:56;9.57;;;2.20;;
15312;SDS011;7757;52.626;4.746;2023-08-21T04:20:22;8.25;;;1.98;;
15312;SDS011;7757;52.626;4.746;2023-08-21T04:22:48;9.05;;;2.10;;
15312;SDS011;7757;52.626;4.746;2023-08-21T04:25:13;10.30;;;2.03;;
15312;SDS011;7757;52.626;4.746;2023-08-21T04:27:39;6.45;;;1.88;;
15312;SDS011;7757;52.626;4.746;2023-08-21T04:30:04;9.30;;;2.05;;
15312;SDS011;7757;52.626;4.746;2023-08-21T04:32:30;9.60;;;2.05;;
15312;SDS011;7757;52.626;4.746;2023-08-21T04:34:57;7.63;;;1.90;;
15312;SDS011;7757;52.626;4.746;2023-08-21T04:37:23;10.93;;;1.98;;
15312;SDS011;7757;52.626;4.746;2023-08-21T04:39:52;11.07;;;1.95;;
15312;SDS011;7757;52.626;4.746;2023-08-21T04:42:18;8.60;;;2.00;;
15312;SDS011;7757;52.626;4.746;2023-08-21T04:44:44;8.27;;;2.03;;
15312;SDS011;7757;52.626;4.746;2023-08-21T04:47:19;10.25;;;2.38;;
15312;SDS011;7757;52.626;4.746;2023-08-21T04:49:44;7.93;;;2.03;;
15312;SDS011;7757;52.626;4.746;2023-08-21T04:52:10;8.10;;;1.83;;
15312;SDS011;7757;52.626;4.746;2023-08-21T04:54:35;8.65;;;2.15;;
15312;SDS011;7757;52.626;4.746;2023-08-21T04:57:00;12.10;;;2.30;;
15312;SDS011;7757;52.626;4.746;2023-08-21T04:59:27;9.30;;;2.17;;
15312;SDS011;7757;52.626;4.746;2023-08-21T05:01:52;12.70;;;2.30;;
15312;SDS011;7757;52.626;4.746;2023-08-21T05:04:17;7.97;;;2.17;;
15312;SDS011;7757;52.626;4.746;2023-08-21T05:06:43;9.98;;;2.20;;
15312;SDS011;7757;52.626;4.746;2023-08-21T05:09:14;12.68;;;2.53;;
15312;SDS011;7757;52.626;4.746;2023-08-21T05:11:39;9.43;;;2.28;;
15312;SDS011;7757;52.626;4.746;2023-08-21T05:14:05;10.80;;;2.33;;
15312;SDS011;7757;52.626;4.746;2023-08-21T05:16:32;10.65;;;2.58;;
15312;SDS011;7757;52.626;4.746;2023-08-21T05:18:57;10.10;;;2.10;;
15312;SDS011;7757;52.626;4.746;2023-08-21T05:21:23;11.02;;;2.25;;
15312;SDS011;7757;52.626;4.746;2023-08-21T05:23:48;10.30;;;2.60;;
15312;SDS011;7757;52.626;4.746;2023-08-21T05:26:13;7.47;;;2.10;;
15312;SDS011;7757;52.626;4.746;2023-08-21T05:28:39;12.20;;;2.50;;
15312;SDS011;7757;52.626;4.746;2023-08-21T05:31:04;17.23;;;2.60;;
15312;SDS011;7757;52.626;4.746;2023-08-21T05:33:30;14.52;;;2.67;;
15312;SDS011;7757;52.626;4.746;2023-08-21T05:35:58;11.77;;;2.35;;
15312;SDS011;7757;52.626;4.746;2023-08-21T05:38:24;13.13;;;2.50;;
15312;SDS011;7757;52.626;4.746;2023-08-21T05:40:49;11.02;;;2.58;;
15312;SDS011;7757;52.626;4.746;2023-08-21T05:43:16;12.30;;;2.70;;
15312;SDS011;7757;52.626;4.746;2023-08-21T05:45:42;12.50;;;2.50;;
15312;SDS011;7757;52.626;4.746;2023-08-21T05:48:08;9.73;;;2.40;;
15312;SDS011;7757;52.626;4.746;2023-08-21T05:50:35;13.13;;;2.40;;
15312;SDS011;7757;52.626;4.746;2023-08-21T05:53:06;11.20;;;2.47;;
15312;SDS011;7757;52.626;4.746;2023-08-21T05:55:31;10.35;;;2.15;;
15312;SDS011;7757;52.626;4.746;2023-08-21T05:57:57;11.75;;;2.38;;
15312;SDS011;7757;52.626;4.746;2023-08-21T06:00:23;13.45;;;2.30;;
15312;SDS011;7757;52.626;4.746;2023-08-21T06:02:48;12.68;;;2.50;;
15312;SDS011;7757;52.626;4.746;2023-08-21T06:05:14;13.07;;;2.50;;
15312;SDS011;7757;52.626;4.746;2023-08-21T06:07:39;13.23;;;2.55;;
15312;SDS011;7757;52.626;4.746;2023-08-21T06:10:06;16.05;;;2.65;;
15312;SDS011;7757;52.626;4.746;2023-08-21T06:12:37;12.23;;;2.60;;
15312;SDS011;7757;52.626;4.746;2023-08-21T06:15:03;11.02;;;2.40;;
15312;SDS011;7757;52.626;4.746;2023-08-21T06:17:29;9.13;;;2.25;;
15312;SDS011;7757;52.626;4.746;2023-08-21T06:19:54;9.05;;;2.47;;
15312;SDS011;7757;52.626;4.746;2023-08-21T06:22:20;12.38;;;2.30;;
15312;SDS011;7757;52.626;4.746;2023-08-21T06:24:46;10.88;;;2.42;;
15312;SDS011;7757;52.626;4.746;2023-08-21T06:27:11;11.32;;;2.28;;
15312;SDS011;7757;52.626;4.746;2023-08-21T06:29:37;14.25;;;2.35;;
15312;SDS011;7757;52.626;4.746;2023-08-21T06:32:06;13.32;;;2.53;;
15312;SDS011;7757;52.626;4.746;2023-08-21T06:34:31;16.27;;;2.47;;
15312;SDS011;7757;52.626;4.746;2023-08-21T06:36:56;14.68;;;2.70;;
15312;SDS011;7757;52.626;4.746;2023-08-21T06:39:22;11.85;;;2.38;;
15312;SDS011;7757;52.626;4.746;2023-08-21T06:41:47;11.43;;;2.55;;
15312;SDS011;7757;52.626;4.746;2023-08-21T06:44:13;9.85;;;2.13;;
15312;SDS011;7757;52.626;4.746;2023-08-21T06:46:38;11.77;;;2.50;;
15312;SDS011;7757;52.626;4.746;2023-08-21T06:49:04;13.40;;;2.63;;
15312;SDS011;7757;52.626;4.746;2023-08-21T06:51:29;11.02;;;2.50;;
15312;SDS011;7757;52.626;4.746;2023-08-21T06:53:55;8.70;;;2.25;;
15312;SDS011;7757;52.626;4.746;2023-08-21T06:56:21;15.15;;;2.83;;
15312;SDS011;7757;52.626;4.746;2023-08-21T06:58:47;11.93;;;2.28;;
15312;SDS011;7757;52.626;4.746;2023-08-21T07:01:12;10.30;;;2.40;;
15312;SDS011;7757;52.626;4.746;2023-08-21T07:03:38;13.50;;;2.70;;
15312;SDS011;7757;52.626;4.746;2023-08-21T07:06:03;12.43;;;2.95;;
15312;SDS011;7757;52.626;4.746;2023-08-21T07:08:29;11.13;;;2.50;;
15312;SDS011;7757;52.626;4.746;2023-08-21T07:10:54;14.30;;;2.78;;
15312;SDS011;7757;52.626;4.746;2023-08-21T07:13:19;11.02;;;2.42;;
15312;SDS011;7757;52.626;4.746;2023-08-21T07:15:45;13.80;;;2.80;;
15312;SDS011;7757;52.626;4.746;2023-08-21T07:18:11;10.38;;;2.55;;
15312;SDS011;7757;52.626;4.746;2023-08-21T07:20:38;10.98;;;2.50;;
15312;SDS011;7757;52.626;4.746;2023-08-21T07:23:03;9.93;;;2.30;;
15312;SDS011;7757;52.626;4.746;2023-08-21T07:25:29;12.52;;;2.45;;
15312;SDS011;7757;52.626;4.746;2023-08-21T07:27:54;11.38;;;2.38;;
15312;SDS011;7757;52.626;4.746;2023-08-21T07:30:21;12.38;;;2.45;;
15312;SDS011;7757;52.626;4.746;2023-08-21T07:32:48;13.52;;;2.85;;
15312;SDS011;7757;52.626;4.746;2023-08-21T07:35:14;10.35;;;2.25;;
15312;SDS011;7757;52.626;4.746;2023-08-21T07:37:43;12.95;;;3.17;;
15312;SDS011;7757;52.626;4.746;2023-08-21T07:40:08;10.98;;;2.33;;
15312;SDS011;7757;52.626;4.746;2023-08-21T07:42:34;15.25;;;2.30;;
15312;SDS011;7757;52.626;4.746;2023-08-21T07:44:59;15.73;;;2.85;;
15312;SDS011;7757;52.626;4.746;2023-08-21T07:47:26;10.68;;;2.38;;
15312;SDS011;7757;52.626;4.746;2023-08-21T07:49:52;13.57;;;2.45;;
15312;SDS011;7757;52.626;4.746;2023-08-21T07:52:19;11.48;;;2.20;;
15312;SDS011;7757;52.626;4.746;2023-08-21T07:54:46;12.73;;;2.05;;
15312;SDS011;7757;52.626;4.746;2023-08-21T07:57:11;9.73;;;1.85;;
15312;SDS011;7757;52.626;4.746;2023-08-21T07:59:38;11.80;;;2.20;;
15312;SDS011;7757;52.626;4.746;2023-08-21T08:02:03;10.50;;;2.10;;
15312;SDS011;7757;52.626;4.746;2023-08-21T08:04:29;9.45;;;1.95;;
15312;SDS011;7757;52.626;4.746;2023-08-21T08:06:55;13.27;;;2.40;;
15312;SDS011;7757;52.626;4.746;2023-08-21T08:09:20;11.18;;;1.90;;
15312;SDS011;7757;52.626;4.746;2023-08-21T08:11:46;13.00;;;2.25;;
15312;SDS011;7757;52.626;4.746;2023-08-21T08:14:11;11.93;;;2.05;;
15312;SDS011;7757;52.626;4.746;2023-08-21T08:16:36;11.93;;;1.80;;
15312;SDS011;7757;52.626;4.746;2023-08-21T08:19:03;8.15;;;1.92;;
15312;SDS011;7757;52.626;4.746;2023-08-21T08:21:28;8.88;;;1.90;;
15312;SDS011;7757;52.626;4.746;2023-08-21T08:23:54;16.75;;;2.08;;
15312;SDS011;7757;52.626;4.746;2023-08-21T08:26:20;16.27;;;2.00;;
15312;SDS011;7757;52.626;4.746;2023-08-21T08:28:45;9.63;;;1.90;;
15312;SDS011;7757;52.626;4.746;2023-08-21T08:31:15;8.85;;;1.80;;
15312;SDS011;7757;52.626;4.746;2023-08-21T08:33:41;11.55;;;2.10;;
15312;SDS011;7757;52.626;4.746;2023-08-21T08:36:07;9.50;;;1.85;;
15312;SDS011;7757;52.626;4.746;2023-08-21T08:38:33;11.05;;;2.20;;
15312;SDS011;7757;52.626;4.746;2023-08-21T08:40:58;11.23;;;2.05;;
15312;SDS011;7757;52.626;4.746;2023-08-21T08:43:27;12.00;;;2.08;;
15312;SDS011;7757;52.626;4.746;2023-08-21T08:45:54;9.65;;;1.73;;
15312;SDS011;7757;52.626;4.746;2023-08-21T08:48:23;11.82;;;2.20;;
15312;SDS011;7757;52.626;4.746;2023-08-21T08:50:48;11.48;;;1.98;;
15312;SDS011;7757;52.626;4.746;2023-08-21T08:53:15;10.55;;;1.92;;
15312;SDS011;7757;52.626;4.746;2023-08-21T08:55:42;12.00;;;2.00;;
15312;SDS011;7757;52.626;4.746;2023-08-21T08:58:08;7.75;;;1.50;;
15312;SDS011;7757;52.626;4.746;2023-08-21T09:00:39;12.43;;;1.80;;
15312;SDS011;7757;52.626;4.746;2023-08-21T09:03:04;12.65;;;1.90;;
15312;SDS011;7757;52.626;4.746;2023-08-21T09:05:30;12.70;;;2.00;;
15312;SDS011;7757;52.626;4.746;2023-08-21T09:08:29;13.00;;;2.30;;
15312;SDS011;7757;52.626;4.746;2023-08-21T09:10:49;11.27;;;1.88;;
15312;SDS011;7757;52.626;4.746;2023-08-21T09:13:15;9.93;;;2.17;;
15312;SDS011;7757;52.626;4.746;2023-08-21T09:15:43;8.25;;;1.50;;
15312;SDS011;7757;52.626;4.746;2023-08-21T09:18:20;9.93;;;2.03;;
15312;SDS011;7757;52.626;4.746;2023-08-21T09:20:47;12.15;;;1.83;;
15312;SDS011;7757;52.626;4.746;2023-08-21T09:23:18;12.75;;;1.92;;
15312;SDS011;7757;52.626;4.746;2023-08-21T09:25:45;9.93;;;1.70;;
15312;SDS011;7757;52.626;4.746;2023-08-21T09:28:14;12.43;;;1.88;;
15312;SDS011;7757;52.626;4.746;2023-08-21T09:33:13;11.85;;;2.13;;
15312;SDS011;7757;52.626;4.746;2023-08-21T09:35:38;9.98;;;1.70;;
15312;SDS011;7757;52.626;4.746;2023-08-21T09:38:07;10.35;;;2.15;;
15312;SDS011;7757;52.626;4.746;2023-08-21T09:40:34;8.63;;;1.70;;
15312;SDS011;7757;52.626;4.746;2023-08-21T09:42:59;11.40;;;1.85;;
15312;SDS011;7757;52.626;4.746;2023-08-21T09:45:30;11.77;;;1.90;;
15312;SDS011;7757;52.626;4.746;2023-08-21T09:47:55;8.05;;;1.50;;
15312;SDS011;7757;52.626;4.746;2023-08-21T09:50:23;14.43;;;1.90;;
15312;SDS011;7757;52.626;4.746;2023-08-21T09:52:49;7.95;;;1.65;;
15312;SDS011;7757;52.626;4.746;2023-08-21T09:55:16;9.88;;;1.90;;
15312;SDS011;7757;52.626;4.746;2023-08-21T09:57:42;10.73;;;1.80;;
15312;SDS011;7757;52.626;4.746;2023-08-21T10:00:08;7.97;;;1.50;;
15312;SDS011;7757;52.626;4.746;2023-08-21T10:02:48;7.68;;;1.60;;
15312;SDS011;7757;52.626;4.746;2023-08-21T10:05:16;5.32;;;1.48;;
15312;SDS011;7757;52.626;4.746;2023-08-21T10:07:44;9.45;;;1.77;;
15312;SDS011;7757;52.626;4.746;2023-08-21T10:10:12;9.57;;;1.77;;
15312;SDS011;7757;52.626;4.746;2023-08-21T10:12:38;9.43;;;1.70;;
15312;SDS011;7757;52.626;4.746;2023-08-21T10:15:03;8.35;;;1.90;;
15312;SDS011;7757;52.626;4.746;2023-08-21T10:17:30;8.80;;;1.60;;
15312;SDS011;7757;52.626;4.746;2023-08-21T10:20:01;12.20;;;1.60;;
15312;SDS011;7757;52.626;4.746;2023-08-21T10:22:44;10.68;;;1.95;;
15312;SDS011;7757;52.626;4.746;2023-08-21T10:25:16;10.43;;;1.80;;
15312;SDS011;7757;52.626;4.746;2023-08-21T10:27:56;10.52;;;2.13;;
15312;SDS011;7757;52.626;4.746;2023-08-21T10:30:28;9.75;;;1.80;;
15312;SDS011;7757;52.626;4.746;2023-08-21T10:32:55;9.48;;;1.70;;
15312;SDS011;7757;52.626;4.746;2023-08-21T10:35:23;8.93;;;1.80;;
15312;SDS011;7757;52.626;4.746;2023-08-21T10:41:07;8.30;;;1.50;;
15312;SDS011;7757;52.626;4.746;2023-08-21T10:46:05;10.07;;;1.90;;
15312;SDS011;7757;52.626;4.746;2023-08-21T10:48:31;10.20;;;1.92;;
15312;SDS011;7757;52.626;4.746;2023-08-21T10:50:57;7.95;;;1.70;;
15312;SDS011;7757;52.626;4.746;2023-08-21T10:53:26;7.53;;;1.50;;
15312;SDS011;7757;52.626;4.746;2023-08-21T10:55:53;9.35;;;1.77;;
15312;SDS011;7757;52.626;4.746;2023-08-21T10:58:19;9.20;;;1.50;;
15312;SDS011;7757;52.626;4.746;2023-08-21T11:00:46;8.98;;;1.70;;
15312;SDS011;7757;52.626;4.746;2023-08-21T11:03:11;8.75;;;1.73;;
15312;SDS011;7757;52.626;4.746;2023-08-21T11:05:36;6.63;;;1.60;;
15312;SDS011;7757;52.626;4.746;2023-08-21T11:08:02;7.10;;;1.55;;
15312;SDS011;7757;52.626;4.746;2023-08-21T11:10:30;8.73;;;1.63;;
15312;SDS011;7757;52.626;4.746;2023-08-21T11:12:57;10.05;;;1.60;;
15312;SDS011;7757;52.626;4.746;2023-08-21T11:15:28;7.63;;;1.63;;
15312;SDS011;7757;52.626;4.746;2023-08-21T11:17:58;5.45;;;1.30;;
15312;SDS011;7757;52.626;4.746;2023-08-21T11:20:32;7.50;;;1.60;;
15312;SDS011;7757;52.626;4.746;2023-08-21T11:23:00;7.60;;;1.40;;
15312;SDS011;7757;52.626;4.746;2023-08-21T11:25:31;8.48;;;1.60;;
15312;SDS011;7757;52.626;4.746;2023-08-21T11:27:58;8.57;;;1.67;;
15312;SDS011;7757;52.626;4.746;2023-08-21T11:30:24;8.30;;;1.52;;
15312;SDS011;7757;52.626;4.746;2023-08-21T11:33:09;7.18;;;1.52;;
15312;SDS011;7757;52.626;4.746;2023-08-21T11:35:38;9.32;;;1.70;;
15312;SDS011;7757;52.626;4.746;2023-08-21T11:38:04;5.30;;;1.50;;
15312;SDS011;7757;52.626;4.746;2023-08-21T11:40:30;7.13;;;1.60;;
15312;SDS011;7757;52.626;4.746;2023-08-21T11:42:59;6.68;;;1.50;;
15312;SDS011;7757;52.626;4.746;2023-08-21T11:45:26;8.55;;;1.38;;
15312;SDS011;7757;52.626;4.746;2023-08-21T11:47:51;9.27;;;1.60;;
15312;SDS011;7757;52.626;4.746;2023-08-21T11:50:20;7.13;;;1.65;;
15312;SDS011;7757;52.626;4.746;2023-08-21T11:52:46;7.38;;;1.50;;
15312;SDS011;7757;52.626;4.746;2023-08-21T11:55:11;8.52;;;1.63;;
15312;SDS011;7757;52.626;4.746;2023-08-21T11:57:46;6.55;;;1.48;;
15312;SDS011;7757;52.626;4.746;2023-08-21T12:00:13;9.60;;;1.80;;
15312;SDS011;7757;52.626;4.746;2023-08-21T12:02:41;5.65;;;1.30;;
15312;SDS011;7757;52.626;4.746;2023-08-21T12:05:06;11.73;;;1.63;;
15312;SDS011;7757;52.626;4.746;2023-08-21T12:07:38;6.88;;;1.50;;
15312;SDS011;7757;52.626;4.746;2023-08-21T12:10:04;7.65;;;1.60;;
15312;SDS011;7757;52.626;4.746;2023-08-21T12:12:29;8.05;;;1.75;;
15312;SDS011;7757;52.626;4.746;2023-08-21T12:14:55;7.00;;;1.40;;
15312;SDS011;7757;52.626;4.746;2023-08-21T12:17:20;9.18;;;1.65;;
15312;SDS011;7757;52.626;4.746;2023-08-21T12:19:46;9.55;;;1.95;;
15312;SDS011;7757;52.626;4.746;2023-08-21T12:22:12;8.70;;;1.67;;
15312;SDS011;7757;52.626;4.746;2023-08-21T12:24:39;6.63;;;1.60;;
15312;SDS011;7757;52.626;4.746;2023-08-21T12:27:06;7.65;;;1.70;;
15312;SDS011;7757;52.626;4.746;2023-08-21T12:29:31;8.75;;;1.50;;
15312;SDS011;7757;52.626;4.746;2023-08-21T12:31:57;7.22;;;1.63;;
15312;SDS011;7757;52.626;4.746;2023-08-21T12:34:22;6.15;;;1.50;;
15312;SDS011;7757;52.626;4.746;2023-08-21T12:36:49;8.95;;;1.67;;
15312;SDS011;7757;52.626;4.746;2023-08-21T12:39:15;7.57;;;1.30;;
15312;SDS011;7757;52.626;4.746;2023-08-21T12:41:42;6.60;;;1.45;;
15312;SDS011;7757;52.626;4.746;2023-08-21T12:44:09;9.93;;;1.77;;
15312;SDS011;7757;52.626;4.746;2023-08-21T12:46:35;8.60;;;1.58;;
15312;SDS011;7757;52.626;4.746;2023-08-21T12:49:02;9.20;;;1.73;;
15312;SDS011;7757;52.626;4.746;2023-08-21T12:51:28;8.35;;;1.65;;
15312;SDS011;7757;52.626;4.746;2023-08-21T12:53:54;8.30;;;1.73;;
15312;SDS011;7757;52.626;4.746;2023-08-21T12:56:19;9.30;;;1.85;;
15312;SDS011;7757;52.626;4.746;2023-08-21T12:58:45;8.63;;;1.75;;
15312;SDS011;7757;52.626;4.746;2023-08-21T13:01:11;9.80;;;2.03;;
15312;SDS011;7757;52.626;4.746;2023-08-21T13:03:37;10.23;;;1.85;;
15312;SDS011;7757;52.626;4.746;2023-08-21T13:06:03;9.35;;;2.30;;
15312;SDS011;7757;52.626;4.746;2023-08-21T13:08:29;10.60;;;2.00;;
15312;SDS011;7757;52.626;4.746;2023-08-21T13:10:54;8.38;;;1.77;;
15312;SDS011;7757;52.626;4.746;2023-08-21T13:13:21;9.10;;;2.20;;
15312;SDS011;7757;52.626;4.746;2023-08-21T13:15:47;10.35;;;1.70;;
15312;SDS011;7757;52.626;4.746;2023-08-21T13:18:12;8.65;;;1.80;;
15312;SDS011;7757;52.626;4.746;2023-08-21T13:20:41;11.77;;;2.03;;
15312;SDS011;7757;52.626;4.746;2023-08-21T13:23:07;11.43;;;2.17;;
15312;SDS011;7757;52.626;4.746;2023-08-21T13:25:33;8.73;;;1.70;;
15312;SDS011;7757;52.626;4.746;2023-08-21T13:28:00;10.00;;;1.65;;
15312;SDS011;7757;52.626;4.746;2023-08-21T13:30:27;8.48;;;1.55;;
15312;SDS011;7757;52.626;4.746;2023-08-21T13:32:52;10.40;;;1.90;;
15312;SDS011;7757;52.626;4.746;2023-08-21T13:35:18;6.72;;;1.92;;
15312;SDS011;7757;52.626;4.746;2023-08-21T13:37:45;9.70;;;1.80;;
15312;SDS011;7757;52.626;4.746;2023-08-21T13:40:11;7.53;;;1.70;;
15312;SDS011;7757;52.626;4.746;2023-08-21T13:42:39;11.50;;;2.00;;
15312;SDS011;7757;52.626;4.746;2023-08-21T13:45:08;8.65;;;1.85;;
15312;SDS011;7757;52.626;4.746;2023-08-21T13:47:43;9.23;;;1.88;;
15312;SDS011;7757;52.626;4.746;2023-08-21T13:50:11;13.90;;;2.15;;
15312;SDS011;7757;52.626;4.746;2023-08-21T13:52:36;8.07;;;1.75;;
15312;SDS011;7757;52.626;4.746;2023-08-21T13:55:04;10.48;;;1.80;;
15312;SDS011;7757;52.626;4.746;2023-08-21T13:57:30;10.82;;;2.03;;
15312;SDS011;7757;52.626;4.746;2023-08-21T13:59:57;9.90;;;1.90;;
15312;SDS011;7757;52.626;4.746;2023-08-21T14:02:23;8.35;;;1.70;;
15312;SDS011;7757;52.626;4.746;2023-08-21T14:04:50;10.88;;;2.13;;
15312;SDS011;7757;52.626;4.746;2023-08-21T14:07:15;9.15;;;1.90;;
15312;SDS011;7757;52.626;4.746;2023-08-21T14:09:40;10.13;;;2.13;;
15312;SDS011;7757;52.626;4.746;2023-08-21T14:12:06;12.07;;;2.10;;
15312;SDS011;7757;52.626;4.746;2023-08-21T14:14:34;6.68;;;1.50;;
15312;SDS011;7757;52.626;4.746;2023-08-21T14:17:00;12.25;;;3.15;;
15312;SDS011;7757;52.626;4.746;2023-08-21T14:19:25;8.15;;;1.88;;
15312;SDS011;7757;52.626;4.746;2023-08-21T14:21:51;7.72;;;1.83;;
15312;SDS011;7757;52.626;4.746;2023-08-21T14:24:18;7.95;;;1.88;;
15312;SDS011;7757;52.626;4.746;2023-08-21T14:26:43;9.15;;;1.80;;
15312;SDS011;7757;52.626;4.746;2023-08-21T14:29:10;8.10;;;1.65;;
15312;SDS011;7757;52.626;4.746;2023-08-21T14:31:35;9.68;;;1.60;;
15312;SDS011;7757;52.626;4.746;2023-08-21T14:34:01;11.15;;;1.95;;
15312;SDS011;7757;52.626;4.746;2023-08-21T14:36:28;7.90;;;1.80;;
15312;SDS011;7757;52.626;4.746;2023-08-21T14:38:53;7.50;;;1.60;;
15312;SDS011;7757;52.626;4.746;2023-08-21T14:41:19;7.43;;;1.80;;
15312;SDS011;7757;52.626;4.746;2023-08-21T14:43:45;9.10;;;1.77;;
15312;SDS011;7757;52.626;4.746;2023-08-21T14:46:11;8.35;;;1.67;;
15312;SDS011;7757;52.626;4.746;2023-08-21T14:48:37;8.07;;;1.60;;
15312;SDS011;7757;52.626;4.746;2023-08-21T14:51:03;6.57;;;1.60;;
15312;SDS011;7757;52.626;4.746;2023-08-21T14:53:30;7.18;;;1.60;;
15312;SDS011;7757;52.626;4.746;2023-08-21T14:55:55;9.00;;;1.67;;
15312;SDS011;7757;52.626;4.746;2023-08-21T14:58:22;8.98;;;1.73;;
15312;SDS011;7757;52.626;4.746;2023-08-21T15:00:49;10.68;;;1.70;;
15312;SDS011;7757;52.626;4.746;2023-08-21T15:03:15;6.75;;;1.55;;
15312;SDS011;7757;52.626;4.746;2023-08-21T15:05:40;8.52;;;1.70;;